sensor_id;sensor_type;location;lat;lon;timestamp;pressure;altitude;pressure_sealevel;temperature;humidity
141;BME280;65;48.778;9.160;2024-03-08T00:38:18;98430.75;;;2.21;100.00
141;BME280;65;48.778;9.160;2024-03-08T00:41:04;98423.88;;;2.19;100.00
141;BME280;65;48.778;9.160;2024-03-08T00:43:50;98419.53;;;2.18;100.00
141;BME280;65;48.778;9.160;2024-03-08T00:46:36;98424.25;;;2.04;100.00
141;BME280;65;48.778;9.160;2024-03-08T00:53:04;98415.34;;;1.78;100.00
141;BME280;65;48.778;9.160;2024-03-08T00:55:50;98415.38;;;1.77;100.00
141;BME280;65;48.778;9.160;2024-03-08T00:58:36;98412.19;;;1.64;100.00
141;BME280;65;48.778;9.160;2024-03-08T01:01:22;98405.97;;;1.70;100.00
141;BME280;65;48.778;9.160;2024-03-08T01:04:10;98402.69;;;1.62;100.00
141;BME280;65;48.778;9.160;2024-03-08T01:06:56;98398.72;;;1.47;100.00
141;BME280;65;48.778;9.160;2024-03-08T01:09:42;98398.88;;;1.41;100.00
141;BME280;65;48.778;9.160;2024-03-08T01:12:28;98399.81;;;1.37;100.00
141;BME280;65;48.778;9.160;2024-03-08T01:15:15;98400.00;;;1.29;100.00
141;BME280;65;48.778;9.160;2024-03-08T01:18:01;98402.81;;;1.20;100.00
141;BME280;65;48.778;9.160;2024-03-08T01:20:46;98394.38;;;1.09;100.00
141;BME280;65;48.778;9.160;2024-03-08T01:23:32;98390.13;;;1.05;100.00
141;BME280;65;48.778;9.160;2024-03-08T01:26:18;98390.28;;;0.97;100.00
141;BME280;65;48.778;9.160;2024-03-08T01:29:04;98388.69;;;0.91;100.00
141;BME280;65;48.778;9.160;2024-03-08T01:31:49;98377.44;;;0.89;100.00
141;BME280;65;48.778;9.160;2024-03-08T01:34:37;98378.47;;;0.82;100.00
141;BME280;65;48.778;9.160;2024-03-08T01:37:23;98376.69;;;0.84;100.00
141;BME280;65;48.778;9.160;2024-03-08T01:40:09;98375.66;;;0.91;100.00
141;BME280;65;48.778;9.160;2024-03-08T01:42:55;98368.84;;;0.86;100.00
141;BME280;65;48.778;9.160;2024-03-08T01:45:41;98362.88;;;0.82;100.00
141;BME280;65;48.778;9.160;2024-03-08T01:48:30;98360.25;;;0.82;100.00
141;BME280;65;48.778;9.160;2024-03-08T01:51:16;98349.72;;;0.88;100.00
141;BME280;65;48.778;9.160;2024-03-08T01:54:03;98346.22;;;0.89;100.00
141;BME280;65;48.778;9.160;2024-03-08T01:56:51;98341.97;;;0.85;100.00
141;BME280;65;48.778;9.160;2024-03-08T01:59:38;98336.91;;;0.79;100.00
141;BME280;65;48.778;9.160;2024-03-08T02:02:24;98333.56;;;0.74;100.00
141;BME280;65;48.778;9.160;2024-03-08T02:05:10;98327.47;;;0.75;100.00
141;BME280;65;48.778;9.160;2024-03-08T02:07:56;98330.78;;;0.82;100.00
141;BME280;65;48.778;9.160;2024-03-08T02:10:44;98317.78;;;0.82;100.00
141;BME280;65;48.778;9.160;2024-03-08T02:13:30;98319.63;;;0.77;100.00
141;BME280;65;48.778;9.160;2024-03-08T02:16:22;98316.28;;;0.72;100.00
141;BME280;65;48.778;9.160;2024-03-08T02:19:08;98311.25;;;0.64;100.00
141;BME280;65;48.778;9.160;2024-03-08T02:21:55;98308.81;;;0.55;100.00
141;BME280;65;48.778;9.160;2024-03-08T02:24:41;98307.94;;;0.56;100.00
141;BME280;65;48.778;9.160;2024-03-08T02:27:27;98308.13;;;0.47;100.00
141;BME280;65;48.778;9.160;2024-03-08T02:30:15;98296.97;;;0.42;100.00
141;BME280;65;48.778;9.160;2024-03-08T02:33:05;98291.81;;;0.40;100.00
141;BME280;65;48.778;9.160;2024-03-08T02:35:51;98290.13;;;0.38;100.00
141;BME280;65;48.778;9.160;2024-03-08T02:38:36;98289.44;;;0.29;100.00
141;BME280;65;48.778;9.160;2024-03-08T02:41:36;98293.84;;;0.26;100.00
141;BME280;65;48.778;9.160;2024-03-08T02:44:28;98291.25;;;0.26;100.00
141;BME280;65;48.778;9.160;2024-03-08T02:47:27;98290.41;;;0.24;100.00
141;BME280;65;48.778;9.160;2024-03-08T02:50:19;98289.66;;;0.19;100.00
141;BME280;65;48.778;9.160;2024-03-08T02:53:08;98275.84;;;0.17;100.00
141;BME280;65;48.778;9.160;2024-03-08T02:55:55;98285.25;;;0.22;100.00
141;BME280;65;48.778;9.160;2024-03-08T02:58:41;98280.97;;;0.20;100.00
141;BME280;65;48.778;9.160;2024-03-08T03:01:31;98271.59;;;0.13;100.00
141;BME280;65;48.778;9.160;2024-03-08T03:04:39;98279.28;;;0.17;100.00
141;BME280;65;48.778;9.160;2024-03-08T03:07:44;98269.81;;;0.15;100.00
141;BME280;65;48.778;9.160;2024-03-08T03:10:36;98272.44;;;0.13;100.00
141;BME280;65;48.778;9.160;2024-03-08T03:13:34;98266.19;;;0.22;100.00
141;BME280;65;48.778;9.160;2024-03-08T03:16:25;98265.22;;;0.27;100.00
141;BME280;65;48.778;9.160;2024-03-08T03:19:23;98265.75;;;0.43;100.00
141;BME280;65;48.778;9.160;2024-03-08T03:25:54;98255.97;;;0.54;100.00
141;BME280;65;48.778;9.160;2024-03-08T03:28:47;98265.28;;;0.65;100.00
141;BME280;65;48.778;9.160;2024-03-08T03:31:38;98257.53;;;0.63;100.00
141;BME280;65;48.778;9.160;2024-03-08T03:34:26;98250.00;;;0.49;100.00
141;BME280;65;48.778;9.160;2024-03-08T03:43:16;98244.53;;;0.99;100.00
141;BME280;65;48.778;9.160;2024-03-08T03:46:08;98244.31;;;1.08;100.00
141;BME280;65;48.778;9.160;2024-03-08T03:49:03;98240.81;;;1.09;100.00
141;BME280;65;48.778;9.160;2024-03-08T03:52:30;98234.13;;;0.99;100.00
141;BME280;65;48.778;9.160;2024-03-08T03:55:21;98244.91;;;0.83;100.00
141;BME280;65;48.778;9.160;2024-03-08T03:58:08;98234.63;;;0.79;100.00
141;BME280;65;48.778;9.160;2024-03-08T04:00:55;98238.28;;;0.70;100.00
141;BME280;65;48.778;9.160;2024-03-08T04:03:41;98247.97;;;0.63;100.00
141;BME280;65;48.778;9.160;2024-03-08T04:06:28;98250.31;;;0.76;100.00
141;BME280;65;48.778;9.160;2024-03-08T04:09:22;98230.56;;;0.67;100.00
141;BME280;65;48.778;9.160;2024-03-08T04:12:45;98238.16;;;0.76;100.00
141;BME280;65;48.778;9.160;2024-03-08T04:15:32;98226.63;;;0.86;100.00
141;BME280;65;48.778;9.160;2024-03-08T04:18:23;98230.13;;;0.85;100.00
141;BME280;65;48.778;9.160;2024-03-08T04:21:10;98230.28;;;0.79;100.00
141;BME280;65;48.778;9.160;2024-03-08T04:23:57;98223.97;;;0.89;100.00
141;BME280;65;48.778;9.160;2024-03-08T04:26:47;98227.41;;;0.90;100.00
141;BME280;65;48.778;9.160;2024-03-08T04:29:40;98224.69;;;0.94;100.00
141;BME280;65;48.778;9.160;2024-03-08T04:32:19;98223.22;;;0.84;100.00
141;BME280;65;48.778;9.160;2024-03-08T04:44:11;98217.59;;;1.01;100.00
141;BME280;65;48.778;9.160;2024-03-08T04:47:02;98216.84;;;0.96;100.00
141;BME280;65;48.778;9.160;2024-03-08T04:49:57;98213.00;;;1.11;100.00
141;BME280;65;48.778;9.160;2024-03-08T04:52:48;98222.09;;;1.30;100.00
141;BME280;65;48.778;9.160;2024-03-08T04:55:37;98216.34;;;1.17;100.00
141;BME280;65;48.778;9.160;2024-03-08T04:58:23;98209.75;;;1.03;100.00
141;BME280;65;48.778;9.160;2024-03-08T05:01:12;98210.56;;;1.05;100.00
141;BME280;65;48.778;9.160;2024-03-08T05:04:02;98203.78;;;0.99;100.00
141;BME280;65;48.778;9.160;2024-03-08T05:06:49;98210.13;;;0.87;100.00
141;BME280;65;48.778;9.160;2024-03-08T05:09:35;98207.53;;;0.87;100.00
141;BME280;65;48.778;9.160;2024-03-08T05:12:24;98191.03;;;0.88;100.00
141;BME280;65;48.778;9.160;2024-03-08T05:15:16;98205.41;;;1.03;100.00
141;BME280;65;48.778;9.160;2024-03-08T05:18:02;98202.13;;;0.95;100.00
141;BME280;65;48.778;9.160;2024-03-08T05:20:54;98199.06;;;0.79;100.00
141;BME280;65;48.778;9.160;2024-03-08T05:23:43;98198.03;;;0.86;100.00
141;BME280;65;48.778;9.160;2024-03-08T05:30:35;98195.16;;;0.97;100.00
141;BME280;65;48.778;9.160;2024-03-08T05:33:31;98187.72;;;0.82;100.00
141;BME280;65;48.778;9.160;2024-03-08T05:36:29;98196.03;;;0.96;100.00
141;BME280;65;48.778;9.160;2024-03-08T05:47:52;98188.84;;;1.06;100.00
141;BME280;65;48.778;9.160;2024-03-08T05:51:03;98188.84;;;1.06;100.00
141;BME280;65;48.778;9.160;2024-03-08T05:53:52;98185.53;;;1.01;100.00
141;BME280;65;48.778;9.160;2024-03-08T05:56:43;98190.97;;;0.91;100.00
141;BME280;65;48.778;9.160;2024-03-08T05:59:52;98190.56;;;1.07;100.00
141;BME280;65;48.778;9.160;2024-03-08T06:06:05;98188.78;;;1.09;100.00
141;BME280;65;48.778;9.160;2024-03-08T06:09:00;98188.94;;;1.03;100.00
141;BME280;65;48.778;9.160;2024-03-08T06:11:47;98187.03;;;1.09;100.00
141;BME280;65;48.778;9.160;2024-03-08T06:14:33;98189.69;;;1.08;100.00
141;BME280;65;48.778;9.160;2024-03-08T06:17:26;98185.28;;;1.10;100.00
141;BME280;65;48.778;9.160;2024-03-08T06:20:16;98182.50;;;1.17;100.00
141;BME280;65;48.778;9.160;2024-03-08T06:23:28;98181.53;;;1.21;100.00
141;BME280;65;48.778;9.160;2024-03-08T06:26:16;98182.50;;;1.17;100.00
141;BME280;65;48.778;9.160;2024-03-08T06:29:02;98192.88;;;1.19;100.00
141;BME280;65;48.778;9.160;2024-03-08T06:31:48;98184.09;;;1.23;100.00
141;BME280;65;48.778;9.160;2024-03-08T06:34:34;98188.13;;;1.35;100.00
141;BME280;65;48.778;9.160;2024-03-08T06:37:20;98192.97;;;1.48;100.00
141;BME280;65;48.778;9.160;2024-03-08T06:40:07;98185.84;;;1.55;100.00
141;BME280;65;48.778;9.160;2024-03-08T06:42:55;98185.78;;;1.56;100.00
141;BME280;65;48.778;9.160;2024-03-08T06:45:47;98184.66;;;1.67;100.00
141;BME280;65;48.778;9.160;2024-03-08T06:52:01;98187.84;;;1.78;100.00
141;BME280;65;48.778;9.160;2024-03-08T06:54:47;98187.47;;;1.90;100.00
141;BME280;65;48.778;9.160;2024-03-08T06:57:34;98181.38;;;1.91;100.00
141;BME280;65;48.778;9.160;2024-03-08T07:00:21;98189.72;;;2.02;100.00
141;BME280;65;48.778;9.160;2024-03-08T07:03:12;98188.41;;;2.17;100.00
141;BME280;65;48.778;9.160;2024-03-08T07:06:03;98191.97;;;2.44;100.00
141;BME280;65;48.778;9.160;2024-03-08T07:08:59;98186.28;;;2.30;100.00
141;BME280;65;48.778;9.160;2024-03-08T07:15:37;98175.84;;;2.59;100.00
141;BME280;65;48.778;9.160;2024-03-08T07:18:22;98175.84;;;2.59;100.00
141;BME280;65;48.778;9.160;2024-03-08T07:21:09;98175.56;;;2.40;100.00
141;BME280;65;48.778;9.160;2024-03-08T07:23:56;98174.31;;;2.52;100.00
141;BME280;65;48.778;9.160;2024-03-08T07:26:45;98167.56;;;2.73;100.00
141;BME280;65;48.778;9.160;2024-03-08T07:29:35;98166.78;;;2.97;100.00
141;BME280;65;48.778;9.160;2024-03-08T07:32:20;98176.34;;;2.98;100.00
141;BME280;65;48.778;9.160;2024-03-08T07:35:07;98173.06;;;2.92;100.00
141;BME280;65;48.778;9.160;2024-03-08T07:37:53;98165.03;;;2.98;100.00
141;BME280;65;48.778;9.160;2024-03-08T07:40:41;98167.06;;;2.90;100.00
141;BME280;65;48.778;9.160;2024-03-08T07:43:29;98164.19;;;2.97;100.00
141;BME280;65;48.778;9.160;2024-03-08T07:46:15;98160.09;;;2.89;100.00
141;BME280;65;48.778;9.160;2024-03-08T07:49:04;98154.44;;;3.27;100.00
141;BME280;65;48.778;9.160;2024-03-08T07:51:50;98162.47;;;3.47;100.00
141;BME280;65;48.778;9.160;2024-03-08T07:54:35;98150.41;;;3.43;100.00
141;BME280;65;48.778;9.160;2024-03-08T07:57:21;98162.63;;;2.92;100.00
141;BME280;65;48.778;9.160;2024-03-08T08:00:07;98161.84;;;2.88;100.00
141;BME280;65;48.778;9.160;2024-03-08T08:02:56;98146.34;;;3.10;100.00
141;BME280;65;48.778;9.160;2024-03-08T08:05:42;98154.63;;;3.47;100.00
141;BME280;65;48.778;9.160;2024-03-08T08:08:28;98144.53;;;3.37;100.00
141;BME280;65;48.778;9.160;2024-03-08T08:11:13;98135.31;;;3.52;100.00
141;BME280;65;48.778;9.160;2024-03-08T08:14:02;98140.22;;;3.61;100.00
141;BME280;65;48.778;9.160;2024-03-08T08:16:48;98147.78;;;3.43;100.00
141;BME280;65;48.778;9.160;2024-03-08T08:19:35;98136.38;;;3.46;100.00
141;BME280;65;48.778;9.160;2024-03-08T08:22:21;98141.94;;;3.62;100.00
141;BME280;65;48.778;9.160;2024-03-08T08:25:07;98134.72;;;3.68;100.00
141;BME280;65;48.778;9.160;2024-03-08T08:27:53;98135.22;;;3.55;100.00
141;BME280;65;48.778;9.160;2024-03-08T08:30:41;98132.72;;;3.27;100.00
141;BME280;65;48.778;9.160;2024-03-08T08:33:26;98130.72;;;3.58;100.00
141;BME280;65;48.778;9.160;2024-03-08T08:36:12;98124.13;;;3.48;100.00
141;BME280;65;48.778;9.160;2024-03-08T08:38:59;98123.81;;;3.57;100.00
141;BME280;65;48.778;9.160;2024-03-08T08:41:45;98122.72;;;3.63;100.00
141;BME280;65;48.778;9.160;2024-03-08T08:44:30;98113.81;;;3.43;100.00
141;BME280;65;48.778;9.160;2024-03-08T08:47:19;98127.66;;;3.22;100.00
141;BME280;65;48.778;9.160;2024-03-08T08:50:06;98115.38;;;3.49;100.00
141;BME280;65;48.778;9.160;2024-03-08T08:52:53;98116.94;;;3.55;100.00
141;BME280;65;48.778;9.160;2024-03-08T08:55:40;98118.63;;;3.56;100.00
141;BME280;65;48.778;9.160;2024-03-08T08:58:26;98117.72;;;3.80;100.00
141;BME280;65;48.778;9.160;2024-03-08T09:01:12;98115.91;;;3.82;100.00
141;BME280;65;48.778;9.160;2024-03-08T09:03:57;98115.56;;;3.68;100.00
141;BME280;65;48.778;9.160;2024-03-08T09:06:45;98121.81;;;3.64;100.00
141;BME280;65;48.778;9.160;2024-03-08T09:09:30;98109.31;;;3.72;100.00
141;BME280;65;48.778;9.160;2024-03-08T09:12:16;98114.09;;;3.84;100.00
141;BME280;65;48.778;9.160;2024-03-08T09:15:08;98114.81;;;3.88;100.00
141;BME280;65;48.778;9.160;2024-03-08T09:17:55;98108.38;;;3.96;100.00
141;BME280;65;48.778;9.160;2024-03-08T09:20:41;98110.41;;;3.66;100.00
141;BME280;65;48.778;9.160;2024-03-08T09:23:26;98102.28;;;3.74;100.00
141;BME280;65;48.778;9.160;2024-03-08T09:26:15;98107.16;;;4.06;100.00
141;BME280;65;48.778;9.160;2024-03-08T09:29:02;98098.34;;;4.09;100.00
141;BME280;65;48.778;9.160;2024-03-08T09:31:48;98093.13;;;4.31;100.00
141;BME280;65;48.778;9.160;2024-03-08T09:34:33;98094.06;;;4.50;100.00
141;BME280;65;48.778;9.160;2024-03-08T09:37:20;98089.06;;;4.00;100.00
141;BME280;65;48.778;9.160;2024-03-08T09:40:06;98094.44;;;3.74;100.00
141;BME280;65;48.778;9.160;2024-03-08T09:42:55;98088.50;;;4.16;100.00
141;BME280;65;48.778;9.160;2024-03-08T09:45:42;98086.72;;;4.38;100.00
141;BME280;65;48.778;9.160;2024-03-08T09:48:28;98080.75;;;4.56;100.00
141;BME280;65;48.778;9.160;2024-03-08T09:51:14;98085.63;;;4.65;100.00
141;BME280;65;48.778;9.160;2024-03-08T09:54:02;98083.22;;;4.59;100.00
141;BME280;65;48.778;9.160;2024-03-08T09:56:51;98077.53;;;4.71;100.00
141;BME280;65;48.778;9.160;2024-03-08T09:59:37;98071.25;;;4.54;100.00
141;BME280;65;48.778;9.160;2024-03-08T10:02:22;98059.78;;;4.98;100.00
141;BME280;65;48.778;9.160;2024-03-08T10:05:08;98072.22;;;5.34;100.00
141;BME280;65;48.778;9.160;2024-03-08T10:07:56;98064.63;;;5.28;100.00
141;BME280;65;48.778;9.160;2024-03-08T10:10:41;98072.13;;;5.56;99.78
141;BME280;65;48.778;9.160;2024-03-08T10:13:28;98071.19;;;5.57;99.68
141;BME280;65;48.778;9.160;2024-03-08T10:16:15;98061.75;;;5.34;98.45
141;BME280;65;48.778;9.160;2024-03-08T10:19:02;98052.34;;;5.49;97.88
141;BME280;65;48.778;9.160;2024-03-08T10:21:54;98061.34;;;5.43;97.31
141;BME280;65;48.778;9.160;2024-03-08T10:24:41;98054.34;;;5.62;95.92
141;BME280;65;48.778;9.160;2024-03-08T10:27:27;98050.53;;;5.10;99.65
141;BME280;65;48.778;9.160;2024-03-08T10:30:16;98053.47;;;4.62;100.00
141;BME280;65;48.778;9.160;2024-03-08T10:33:07;98046.44;;;4.42;100.00
141;BME280;65;48.778;9.160;2024-03-08T10:35:53;98036.88;;;4.83;100.00
141;BME280;65;48.778;9.160;2024-03-08T10:38:42;98039.16;;;5.31;100.00
141;BME280;65;48.778;9.160;2024-03-08T10:41:30;98032.78;;;5.95;95.41
141;BME280;65;48.778;9.160;2024-03-08T10:47:21;98027.44;;;6.15;95.19
141;BME280;65;48.778;9.160;2024-03-08T10:50:19;98026.19;;;6.58;87.44
141;BME280;65;48.778;9.160;2024-03-08T10:53:09;98027.44;;;7.03;86.57
141;BME280;65;48.778;9.160;2024-03-08T10:55:57;98023.31;;;7.15;82.21
141;BME280;65;48.778;9.160;2024-03-08T10:58:43;98026.28;;;7.09;84.37
141;BME280;65;48.778;9.160;2024-03-08T11:01:30;98016.22;;;6.82;86.80
141;BME280;65;48.778;9.160;2024-03-08T11:04:16;98022.78;;;6.91;84.64
141;BME280;65;48.778;9.160;2024-03-08T11:07:05;98018.94;;;6.63;84.75
141;BME280;65;48.778;9.160;2024-03-08T11:09:51;98014.63;;;6.62;87.68
141;BME280;65;48.778;9.160;2024-03-08T11:12:37;98007.72;;;6.77;87.82
141;BME280;65;48.778;9.160;2024-03-08T11:15:24;98006.72;;;6.80;86.64
141;BME280;65;48.778;9.160;2024-03-08T11:18:10;98014.16;;;6.54;84.45
141;BME280;65;48.778;9.160;2024-03-08T11:20:57;98012.44;;;6.88;85.77
141;BME280;65;48.778;9.160;2024-03-08T11:23:43;98002.13;;;7.18;83.86
141;BME280;65;48.778;9.160;2024-03-08T11:26:29;97997.75;;;7.34;80.93
141;BME280;65;48.778;9.160;2024-03-08T11:32:17;97994.06;;;7.05;81.03
141;BME280;65;48.778;9.160;2024-03-08T11:35:18;97987.13;;;6.70;83.96
141;BME280;65;48.778;9.160;2024-03-08T11:38:04;97983.94;;;6.63;86.59
141;BME280;65;48.778;9.160;2024-03-08T11:40:50;97987.72;;;6.75;85.97
141;BME280;65;48.778;9.160;2024-03-08T11:43:37;97982.94;;;6.83;87.91
141;BME280;65;48.778;9.160;2024-03-08T11:46:24;97967.03;;;6.51;84.63
141;BME280;65;48.778;9.160;2024-03-08T11:49:10;97966.72;;;6.75;85.56
141;BME280;65;48.778;9.160;2024-03-08T11:51:57;97969.16;;;7.61;83.60
141;BME280;65;48.778;9.160;2024-03-08T11:54:49;97961.53;;;8.49;74.36
141;BME280;65;48.778;9.160;2024-03-08T11:57:36;97964.66;;;9.57;66.50
141;BME280;65;48.778;9.160;2024-03-08T12:00:22;97951.53;;;8.70;76.18
141;BME280;65;48.778;9.160;2024-03-08T12:03:11;97948.84;;;7.94;73.02
141;BME280;65;48.778;9.160;2024-03-08T12:05:57;97937.00;;;11.85;59.97
141;BME280;65;48.778;9.160;2024-03-08T12:08:48;97930.63;;;10.35;61.70
141;BME280;65;48.778;9.160;2024-03-08T12:11:34;97934.91;;;12.01;56.95
141;BME280;65;48.778;9.160;2024-03-08T12:14:21;97932.66;;;11.71;56.08
141;BME280;65;48.778;9.160;2024-03-08T12:17:08;97929.81;;;13.49;51.70
141;BME280;65;48.778;9.160;2024-03-08T12:19:55;97908.91;;;14.65;47.19
141;BME280;65;48.778;9.160;2024-03-08T12:22:42;97903.75;;;14.94;46.86
141;BME280;65;48.778;9.160;2024-03-08T12:25:33;97904.59;;;14.94;52.87
141;BME280;65;48.778;9.160;2024-03-08T12:28:22;97898.31;;;15.96;46.33
141;BME280;65;48.778;9.160;2024-03-08T12:31:08;97904.28;;;18.08;39.65
141;BME280;65;48.778;9.160;2024-03-08T12:33:56;97890.59;;;18.46;37.57
141;BME280;65;48.778;9.160;2024-03-08T12:36:45;97891.81;;;18.87;37.13
141;BME280;65;48.778;9.160;2024-03-08T12:39:34;97879.97;;;18.19;39.87
141;BME280;65;48.778;9.160;2024-03-08T12:42:20;97878.53;;;18.07;37.42
141;BME280;65;48.778;9.160;2024-03-08T12:45:07;97875.47;;;16.61;39.47
141;BME280;65;48.778;9.160;2024-03-08T12:47:55;97879.25;;;13.51;46.36
141;BME280;65;48.778;9.160;2024-03-08T12:50:41;97865.63;;;13.55;47.14
141;BME280;65;48.778;9.160;2024-03-08T12:53:33;97871.38;;;13.05;48.58
141;BME280;65;48.778;9.160;2024-03-08T12:56:37;97861.78;;;13.37;49.43
141;BME280;65;48.778;9.160;2024-03-08T12:59:23;97852.00;;;13.38;47.85
141;BME280;65;48.778;9.160;2024-03-08T13:02:09;97844.28;;;15.75;43.25
141;BME280;65;48.778;9.160;2024-03-08T13:04:56;97838.00;;;18.37;43.58
141;BME280;65;48.778;9.160;2024-03-08T13:07:46;97824.94;;;18.52;38.65
141;BME280;65;48.778;9.160;2024-03-08T13:10:31;97826.41;;;17.01;39.45
141;BME280;65;48.778;9.160;2024-03-08T13:13:17;97820.19;;;17.10;41.82
141;BME280;65;48.778;9.160;2024-03-08T13:16:03;97819.38;;;17.64;38.86
141;BME280;65;48.778;9.160;2024-03-08T13:18:53;97822.44;;;16.39;42.15
141;BME280;65;48.778;9.160;2024-03-08T13:21:39;97808.22;;;16.67;41.60
141;BME280;65;48.778;9.160;2024-03-08T13:24:25;97801.00;;;15.42;43.25
141;BME280;65;48.778;9.160;2024-03-08T13:27:11;97802.50;;;16.43;41.79
141;BME280;65;48.778;9.160;2024-03-08T13:30:05;97804.69;;;14.80;45.39
141;BME280;65;48.778;9.160;2024-03-08T13:32:52;97789.81;;;14.78;45.57
141;BME280;65;48.778;9.160;2024-03-08T13:35:39;97786.56;;;13.91;45.57
141;BME280;65;48.778;9.160;2024-03-08T13:38:26;97782.25;;;14.11;46.44
141;BME280;65;48.778;9.160;2024-03-08T13:41:12;97779.78;;;11.38;52.17
141;BME280;65;48.778;9.160;2024-03-08T13:44:00;97778.38;;;12.39;53.01
141;BME280;65;48.778;9.160;2024-03-08T13:46:46;97771.19;;;12.86;51.57
141;BME280;65;48.778;9.160;2024-03-08T13:49:33;97766.44;;;15.12;44.04
141;BME280;65;48.778;9.160;2024-03-08T13:52:18;97761.97;;;13.78;47.69
141;BME280;65;48.778;9.160;2024-03-08T13:55:05;97763.94;;;15.20;46.57
141;BME280;65;48.778;9.160;2024-03-08T13:57:51;97760.53;;;15.58;48.08
141;BME280;65;48.778;9.160;2024-03-08T14:00:37;97757.47;;;16.11;44.05
141;BME280;65;48.778;9.160;2024-03-08T14:03:22;97754.66;;;15.05;43.63
141;BME280;65;48.778;9.160;2024-03-08T14:06:10;97748.69;;;15.22;44.08
141;BME280;65;48.778;9.160;2024-03-08T14:08:56;97748.34;;;16.13;42.91
141;BME280;65;48.778;9.160;2024-03-08T14:11:43;97734.91;;;13.84;47.16
141;BME280;65;48.778;9.160;2024-03-08T14:14:31;97731.28;;;14.27;47.07
141;BME280;65;48.778;9.160;2024-03-08T14:17:19;97720.63;;;13.64;46.74
141;BME280;65;48.778;9.160;2024-03-08T14:20:06;97724.47;;;13.28;48.64
141;BME280;65;48.778;9.160;2024-03-08T14:22:56;97722.28;;;13.44;46.91
141;BME280;65;48.778;9.160;2024-03-08T14:25:42;97721.81;;;12.05;50.37
141;BME280;65;48.778;9.160;2024-03-08T14:28:28;97723.69;;;11.81;52.17
141;BME280;65;48.778;9.160;2024-03-08T14:31:13;97723.03;;;12.01;53.25
141;BME280;65;48.778;9.160;2024-03-08T14:34:03;97713.31;;;13.77;48.43
141;BME280;65;48.778;9.160;2024-03-08T14:36:48;97709.22;;;14.97;44.68
141;BME280;65;48.778;9.160;2024-03-08T14:39:34;97709.56;;;14.21;47.23
141;BME280;65;48.778;9.160;2024-03-08T14:42:20;97709.97;;;13.96;47.87
141;BME280;65;48.778;9.160;2024-03-08T14:45:07;97696.34;;;13.69;46.85
141;BME280;65;48.778;9.160;2024-03-08T14:47:54;97694.44;;;12.28;50.20
141;BME280;65;48.778;9.160;2024-03-08T14:50:40;97690.22;;;12.37;51.82
141;BME280;65;48.778;9.160;2024-03-08T14:53:26;97688.78;;;11.17;53.04
141;BME280;65;48.778;9.160;2024-03-08T14:56:13;97673.81;;;12.65;51.67
141;BME280;65;48.778;9.160;2024-03-08T14:59:02;97672.25;;;13.60;50.27
141;BME280;65;48.778;9.160;2024-03-08T15:01:50;97670.38;;;14.14;47.88
141;BME280;65;48.778;9.160;2024-03-08T15:04:36;97677.22;;;13.75;48.39
141;BME280;65;48.778;9.160;2024-03-08T15:07:23;97677.91;;;13.88;47.04
141;BME280;65;48.778;9.160;2024-03-08T15:10:09;97660.72;;;12.19;51.45
141;BME280;65;48.778;9.160;2024-03-08T15:13:01;97652.50;;;12.56;50.92
141;BME280;65;48.778;9.160;2024-03-08T15:16:08;97644.47;;;13.44;50.54
141;BME280;65;48.778;9.160;2024-03-08T15:18:54;97637.13;;;13.36;49.36
141;BME280;65;48.778;9.160;2024-03-08T15:21:40;97634.94;;;12.21;52.25
141;BME280;65;48.778;9.160;2024-03-08T15:24:28;97626.50;;;12.27;52.05
141;BME280;65;48.778;9.160;2024-03-08T15:27:14;97624.66;;;12.61;51.91
141;BME280;65;48.778;9.160;2024-03-08T15:30:00;97616.44;;;12.64;50.08
141;BME280;65;48.778;9.160;2024-03-08T15:32:46;97625.72;;;12.59;52.58
141;BME280;65;48.778;9.160;2024-03-08T15:35:46;97623.63;;;12.19;51.41
141;BME280;65;48.778;9.160;2024-03-08T15:38:36;97619.53;;;12.26;52.73
141;BME280;65;48.778;9.160;2024-03-08T15:41:23;97617.03;;;12.68;50.70
141;BME280;65;48.778;9.160;2024-03-08T15:44:12;97606.75;;;12.20;51.87
141;BME280;65;48.778;9.160;2024-03-08T15:46:59;97609.84;;;10.99;56.71
141;BME280;65;48.778;9.160;2024-03-08T15:49:45;97600.31;;;10.36;57.78
141;BME280;65;48.778;9.160;2024-03-08T15:52:31;97591.09;;;9.80;59.63
141;BME280;65;48.778;9.160;2024-03-08T15:55:17;97593.63;;;9.56;61.75
141;BME280;65;48.778;9.160;2024-03-08T15:58:08;97590.38;;;9.40;62.80
141;BME280;65;48.778;9.160;2024-03-08T16:00:54;97590.47;;;9.38;64.48
141;BME280;65;48.778;9.160;2024-03-08T16:03:41;97582.97;;;9.45;63.35
141;BME280;65;48.778;9.160;2024-03-08T16:06:27;97583.72;;;9.47;65.06
141;BME280;65;48.778;9.160;2024-03-08T16:09:13;97583.09;;;9.43;63.31
141;BME280;65;48.778;9.160;2024-03-08T16:12:00;97578.22;;;9.37;63.89
141;BME280;65;48.778;9.160;2024-03-08T16:14:46;97576.22;;;9.28;66.75
141;BME280;65;48.778;9.160;2024-03-08T16:17:33;97576.31;;;9.27;66.47
141;BME280;65;48.778;9.160;2024-03-08T16:20:18;97569.16;;;9.29;66.32
141;BME280;65;48.778;9.160;2024-03-08T16:23:05;97568.72;;;9.35;65.62
141;BME280;65;48.778;9.160;2024-03-08T16:25:51;97568.09;;;9.31;67.02
141;BME280;65;48.778;9.160;2024-03-08T16:28:38;97561.03;;;9.32;65.75
141;BME280;65;48.778;9.160;2024-03-08T16:31:24;97554.38;;;9.26;66.17
141;BME280;65;48.778;9.160;2024-03-08T16:34:11;97563.31;;;9.24;66.25
141;BME280;65;48.778;9.160;2024-03-08T16:36:57;97558.47;;;9.17;65.96
141;BME280;65;48.778;9.160;2024-03-08T16:39:43;97560.34;;;9.03;67.79
141;BME280;65;48.778;9.160;2024-03-08T16:42:29;97553.69;;;8.97;67.51
141;BME280;65;48.778;9.160;2024-03-08T16:45:15;97552.31;;;8.92;69.55
141;BME280;65;48.778;9.160;2024-03-08T16:48:00;97558.91;;;8.72;70.29
141;BME280;65;48.778;9.160;2024-03-08T16:50:46;97547.13;;;8.77;69.07
141;BME280;65;48.778;9.160;2024-03-08T16:53:32;97556.81;;;8.77;69.40
141;BME280;65;48.778;9.160;2024-03-08T16:56:19;97547.22;;;8.49;71.47
141;BME280;65;48.778;9.160;2024-03-08T16:59:05;97554.81;;;8.53;71.68
141;BME280;65;48.778;9.160;2024-03-08T17:01:51;97541.91;;;8.36;71.88
141;BME280;65;48.778;9.160;2024-03-08T17:04:37;97539.63;;;8.44;71.31
141;BME280;65;48.778;9.160;2024-03-08T17:07:23;97536.25;;;8.28;72.96
141;BME280;65;48.778;9.160;2024-03-08T17:10:09;97525.88;;;7.98;77.27
141;BME280;65;48.778;9.160;2024-03-08T17:13:01;97531.16;;;8.12;74.49
141;BME280;65;48.778;9.160;2024-03-08T17:15:47;97527.72;;;8.24;74.33
141;BME280;65;48.778;9.160;2024-03-08T17:18:33;97522.88;;;8.04;75.95
141;BME280;65;48.778;9.160;2024-03-08T17:21:19;97528.53;;;7.84;81.03
141;BME280;65;48.778;9.160;2024-03-08T17:24:05;97537.72;;;8.05;75.93
141;BME280;65;48.778;9.160;2024-03-08T17:26:56;97533.63;;;7.87;77.46